South Reno (Wolf Run), Nevada Weather observations

Data are for observation ending at time listed.
 Day   Time    Ave.   Ave.  Ave.  Vector   Max.   Stn.    Total    Solar   Ave.  
  of    of     Air    Rel.  Wind   Wind    Wind   Baro.  Precip.   Rad.    Soil  
Year   Day     Temp.  Hum.  Speed  Dir.    Gust   Pres.                    Temp. 
2015   (PST)    F      %     mph   deg.    mph     mb.     in.     W/m2     F   
------------------------------------------------------------------------------
  64    0:40   29.0    52    2.6   231      3.9  99999.0    0.00       0    40.9
  64    0:50   28.8    53    2.3   239      3.9  99999.0    0.00       0    40.8
  64    1:00   28.8    53    4.0   224      6.0  99999.0    0.00       0    40.8
  64    1:10   28.2    56    3.5   228      4.7  99999.0    0.00       0    40.7
  64    1:20   28.0    57    3.4   224      4.6  99999.0    0.00       0    40.7
  64    1:30   27.6    58    3.6   226      5.9  99999.0    0.00       0    40.6
  64    1:40   29.4    51    5.3   224      6.9  99999.0    0.00       0    40.6
  64    1:50   28.8    51    3.1   238      6.7  99999.0    0.00       0    40.5
  64    2:00   28.9    50    4.6   241      7.3  99999.0    0.00       0    40.5
  64    2:10   30.0    47    6.6   239      9.6  99999.0    0.00       0    40.4
  64    2:20   30.8    46    6.0   238      8.0  99999.0    0.00       0    40.4
  64    2:30   31.1    46    5.8   242      8.2  99999.0    0.00       0    40.3
  64    2:40   31.4    45    5.3   246      8.1  99999.0    0.00       0    40.3
  64    2:50   30.8    47    4.0   244      5.8  99999.0    0.00       0    40.2
  64    3:00   30.5    48    3.4   325      6.2  99999.0    0.00       0    40.2
  64    3:10   30.8    46    4.5   288      8.1  99999.0    0.00       0    40.2
  64    3:20   30.8    48    4.4   293      7.1  99999.0    0.00       0    40.1
  64    3:30   29.2    53    3.1   294      6.3  99999.0    0.00       0    40.1
  64    3:40   29.1    54    3.0   318      5.7  99999.0    0.00       0    40.0
  64    3:50   28.7    52    0.9   326      3.8  99999.0    0.00       0    40.0
  64    4:00   28.9    50    2.0   140      3.8  99999.0    0.00       0    39.9
  64    4:10   29.1    52    2.4   155      4.1  99999.0    0.00       0    39.9
  64    4:20   26.2    59    2.9   218      4.2  99999.0    0.00       0    39.8
  64    4:30   25.7    60    2.2   226      3.3  99999.0    0.00       0    39.8
  64    4:40   26.2    59    3.1   230      4.5  99999.0    0.00       0    39.7
  64    4:50   26.7    58    1.8   230      3.7  99999.0    0.00       0    39.7
  64    5:00   28.1    56    1.9   238      4.3  99999.0    0.00       0    39.6
  64    5:10   28.3    55    1.5   300      3.8  99999.0    0.00       0    39.6
  64    5:20   28.6    54    0.2   206      1.9  99999.0    0.00       0    39.6
  64    5:30   29.9    52    2.0   174      5.8  99999.0    0.00       0    39.5
  64    5:40   27.8    56    1.4   127      3.3  99999.0    0.00       0    39.5
  64    5:50   27.0    59    0.0   222      1.1  99999.0    0.00       0    39.4
  64    6:00   27.4    58    0.0   301      1.7  99999.0    0.00       0    39.4
  64    6:10   27.6    58    1.6   297      4.0  99999.0    0.00       0    39.3
  64    6:20   28.6    56    0.7   266      3.9  99999.0    0.00       1    39.3
  64    6:30   28.5    57    1.1   123      3.9  99999.0    0.00       5    39.2
  64    6:40   28.2    58    1.2   143      2.8  99999.0    0.00      11    39.2
  64    6:50   28.3    57    1.6   227      4.2  99999.0    0.00      24    39.1
  64    7:00   29.8    55    1.8   235      4.7  99999.0    0.00      51    39.1
  64    7:10   31.1    53    3.0   237      5.3  99999.0    0.00      85    39.1
  64    7:20   32.5    52    2.2   219      4.2  99999.0    0.00     126    39.0
  64    7:30   32.7    53    2.1    63      3.0  99999.0    0.00     164    39.0
  64    7:40   32.5    52    3.5    30      5.9  99999.0    0.00     197    38.9
  64    7:50   32.2    54    2.8    29      6.2  99999.0    0.00     230    38.9
  64    8:00   33.1    52    3.1    23      4.9  99999.0    0.00     262    38.8
  64    8:10   33.5    51    3.6    12      5.2  99999.0    0.00     294    38.8
  64    8:20   34.0    51    3.4     2      5.6  99999.0    0.00     327    38.8
  64    8:30   34.3    50    4.8   352      6.8  99999.0    0.00     359    38.7
  64    8:40   35.3    50    4.0   352      6.4  99999.0    0.00     390    38.7
  64    8:50   36.4    48    3.5     4      5.9  99999.0    0.00     421    38.6
  64    9:00   36.5    49    4.3    24      7.2  99999.0    0.00     451    38.6
  64    9:10   37.6    47    3.8    37      5.9  99999.0    0.00     481    38.6
  64    9:20   38.1    44    3.4    42      5.8  99999.0    0.00     509    38.5
  64    9:30   39.1    43    2.0    14      4.9  99999.0    0.00     534    38.5
  64    9:40   40.6    41    1.7    33      5.1  99999.0    0.00     560    38.5
  64    9:50   41.0    41    2.9    65      4.8  99999.0    0.00     585    38.5
  64   10:00   41.6    39    2.9    47      5.3  99999.0    0.00     609    38.5
  64   10:10   42.0    38    1.9    58      5.3  99999.0    0.00     630    38.4
  64   10:20   43.6    36    1.6    66      4.9  99999.0    0.00     650    38.4
  64   10:30   43.7    37    2.8   107      6.8  99999.0    0.00     669    38.4
  64   10:40   44.2    36    3.5    93      6.8  99999.0    0.00     686    38.5
  64   10:50   45.2    35    3.0    73      7.0  99999.0    0.00     703    38.5
  64   11:00   46.1    35    2.8    88      7.0  99999.0    0.00     717    38.6
  64   11:10   46.7    34    4.0    76      8.0  99999.0    0.00     730    38.6
  64   11:20   47.5    32    4.2    74      8.3  99999.0    0.00     741    38.7
  64   11:30   47.8    32    4.9    48      9.2  99999.0    0.00     751    38.8
  64   11:40   48.1    31    3.7    95      6.5  99999.0    0.00     759    38.9
  64   11:50   49.1    30    4.4    90      7.9  99999.0    0.00     765    39.0
  64   12:00   49.6    29    3.8    52      9.0  99999.0    0.00     768    39.2
  64   12:10   50.5    28    4.4    61      7.0  99999.0    0.00     772    39.3
  64   12:20   51.1    27    3.6    43      8.2  99999.0    0.00     772    39.4
  64   12:30   51.6    27    4.1    52     11.2  99999.0    0.00     770    39.6
  64   12:40   52.5    26    3.5    26      6.2  99999.0    0.00     768    39.7
  64   12:50   52.9    26    3.9    31      8.6  99999.0    0.00     763    39.9
  64   13:00   53.5    25    3.6    81      6.7  99999.0    0.00     757    40.0
  64   13:10   54.1    24    3.6    71      6.4  99999.0    0.00     750    40.2
  64   13:20   54.8    24    2.1    34      5.2  99999.0    0.00     739    40.3
  64   13:30   55.8    22    3.3    63      8.5  99999.0    0.00     728    40.5
  64   13:40   55.9    21    1.2   104      4.3  99999.0    0.00     714    40.7
  64   13:50   57.3    20    2.2    64      5.2  99999.0    0.00     701    40.8
  64   14:00   57.5    19    2.7     6      6.4  99999.0    0.00     684    41.0
  64   14:10   56.9    20    3.9    24      8.5  99999.0    0.00     665    41.1
  64   14:20   57.2    21    2.8   338      6.7  99999.0    0.00     645    41.3
  64   14:30   58.5    20    3.1   348      6.2  99999.0    0.00     625    41.5
  64   14:40   59.1    20    3.6    13      9.5  99999.0    0.00     603    41.6
  64   14:50   58.3    21    3.4   331      6.8  99999.0    0.00     579    41.8
  64   15:00   58.5    21    3.0     7      6.9  99999.0    0.00     553    41.9
  64   15:10   58.5    21    2.8   290      6.9  99999.0    0.00     525    42.1
  64   15:20   58.8    20    4.2   356      7.8  99999.0    0.00     497    42.2
  64   15:30   58.7    18    3.7    16      6.4  99999.0    0.00     468    42.4
  64   15:40   58.9    16    3.4    10      7.6  99999.0    0.00     440    42.5
  64   15:50   60.2    16    2.1   348      8.5  99999.0    0.00     409    42.6
  64   16:00   59.0    16    4.6   353      7.8  99999.0    0.00     377    42.8
  64   16:10   59.0    16    4.8   328      8.1  99999.0    0.00     346    42.9
  64   16:20   58.6    15    4.9   348      7.9  99999.0    0.00     312    43.0
  64   16:30   58.5    15    4.4   345      8.4  99999.0    0.00     278    43.1
  64   16:40   58.5    15    4.1   338      6.5  99999.0    0.00     243    43.2
  64   16:50   58.3    16    4.2   332      7.1  99999.0    0.00     209    43.3
  64   17:00   57.7    16    4.1   330      6.5  99999.0    0.00     172    43.3
  64   17:10   56.9    17    4.5   326      7.0  99999.0    0.00     125    43.4
  64   17:20   56.4    17    3.0   321      5.9  99999.0    0.00      65    43.5
  64   17:30   53.9    20    2.2   296      4.3  99999.0    0.00      22    43.5
  64   17:40   51.3    24    3.4   276      4.5  99999.0    0.00      16    43.5
  64   17:50   49.2    27    2.9   241      4.9  99999.0    0.00      11    43.6
  64   18:00   49.6    25    2.8   211      5.9  99999.0    0.00       5    43.6
  64   18:10   47.6    28    4.3   220      5.9  99999.0    0.00       1    43.6
  64   18:20   47.0    28    3.3   225      5.4  99999.0    0.00       0    43.6
  64   18:30   45.9    29    2.5   227      4.7  99999.0    0.00       0    43.6
  64   18:40   44.5    30    1.0   247      2.9  99999.0    0.00       0    43.6
  64   18:50   44.4    31    2.2   244      4.3  99999.0    0.00       0    43.6
  64   19:00   43.3    33    4.7   254      8.3  99999.0    0.00       0    43.5
  64   19:10   43.4    32    5.0   240      7.8  99999.0    0.00       0    43.5
  64   19:20   43.4    32    6.8   242      9.7  99999.0    0.00       0    43.5
  64   19:30   43.5    32    8.0   252     10.1  99999.0    0.00       0    43.4
  64   19:40   43.6    32    8.5   252     10.5  99999.0    0.00       0    43.4
  64   19:50   43.6    32    7.4   251     10.6  99999.0    0.00       0    43.3
  64   20:00   43.2    32    6.2   254      8.1  99999.0    0.00       0    43.3
  64   20:10   42.4    34    5.6   254      7.8  99999.0    0.00       0    43.2
  64   20:20   42.0    34    5.8   247      8.3  99999.0    0.00       0    43.2
  64   20:30   40.0    38    4.2   239      7.2  99999.0    0.00       0    43.1
  64   20:40   40.3    38    6.0   249      8.3  99999.0    0.00       0    43.1
  64   20:50   40.8    36    5.1   243      7.5  99999.0    0.00       0    43.0
  64   21:00   40.3    37    5.4   238      6.9  99999.0    0.00       0    43.0
  64   21:10   40.8    36    5.7   242      8.1  99999.0    0.00       0    42.9
  64   21:20   40.9    36    7.0   253      9.8  99999.0    0.00       0    42.9
  64   21:30   40.5    36    7.0   253      9.2  99999.0    0.00       0    42.8
  64   21:40   39.9    37    7.2   255     10.7  99999.0    0.00       0    42.7
  64   21:50   40.2    36    6.4   242      9.0  99999.0    0.00       0    42.7
  64   22:00   40.1    36    6.4   236      8.5  99999.0    0.00       0    42.6
  64   22:10   39.6    37    5.9   237      8.4  99999.0    0.00       0    42.6
  64   22:20   39.3    38    5.5   244      8.6  99999.0    0.00       0    42.5
  64   22:30   39.3    37    4.3   233      8.7  99999.0    0.00       0    42.5
  64   22:40   39.0    38    2.9   231      7.3  99999.0    0.00       0    42.4
  64   22:50   38.6    38    8.5   244     12.9  99999.0    0.00       0    42.4
  64   23:00   40.1    35   10.1   249     13.4  99999.0    0.00       0    42.3
  64   23:10   41.4    33    9.2   248     11.0  99999.0    0.00       0    42.3
  64   23:20   39.4    36    9.7   247     13.3  99999.0    0.00       0    42.2
  64   23:30   40.1    35    9.8   256     12.5  99999.0    0.00       0    42.2
  64   23:40   40.7    34    8.7   255     12.1  99999.0    0.00       0    42.1
  64   23:50   40.3    35    6.2   234      9.2  99999.0    0.00       0    42.1
  65    0:00   41.0    34    5.9   244      9.0  99999.0    0.00       0    42.0
  65    0:10   40.4    34    4.2   240      6.8  99999.0    0.00       0    42.0
  65    0:20   39.7    36    6.7   258     10.1  99999.0    0.00       0    41.9
  65    0:30   40.3    34    6.5   265     10.4  99999.0    0.00       0    41.9

Return to South Reno, Nevada graphs page.


Western Regional Climate Center,wrcc@dri.edu